createdAt,value
2019-02-24T00:01:57.341Z,101872.92
2019-02-24T00:04:28.201Z,101877.98
2019-02-24T00:06:58.715Z,101873.63
2019-02-24T00:09:29.225Z,101871.20
2019-02-24T00:11:59.586Z,101866.36
2019-02-24T00:14:30.224Z,101866.02
2019-02-24T00:17:00.757Z,101866.73
2019-02-24T00:19:31.361Z,101866.59
2019-02-24T00:22:01.952Z,101859.47
2019-02-24T00:24:32.590Z,101873.06
2019-02-24T00:27:03.061Z,101868.67
2019-02-24T00:29:33.640Z,101862.11
2019-02-24T00:32:04.107Z,101843.94
2019-02-24T00:34:34.755Z,101842.30
2019-02-24T00:37:05.346Z,101840.92
2019-02-24T00:39:36.004Z,101838.98
2019-02-24T00:42:06.597Z,101833.80
2019-02-24T00:44:37.443Z,101836.34
2019-02-24T00:47:08.158Z,101842.19
2019-02-24T00:49:38.643Z,101839.55
2019-02-24T00:52:09.166Z,101831.13
2019-02-24T00:54:39.608Z,101832.27
2019-02-24T00:57:10.085Z,101836.67
2019-02-24T00:59:40.582Z,101847.25
2019-02-24T01:02:11.072Z,101848.02
2019-02-24T01:04:41.568Z,101840.53
2019-02-24T01:07:11.986Z,101862.77
2019-02-24T01:09:42.535Z,101857.27
2019-02-24T01:12:13.021Z,101831.34
2019-02-24T01:14:43.551Z,101834.02
2019-02-24T01:17:14.031Z,101831.13
2019-02-24T01:19:44.472Z,101829.53
2019-02-24T01:22:14.946Z,101834.27
2019-02-24T01:24:45.592Z,101822.80
2019-02-24T01:27:16.048Z,101827.16
2019-02-24T01:29:46.529Z,101822.91
2019-02-24T01:32:17.086Z,101802.21
2019-02-24T01:34:47.557Z,101798.97
2019-02-24T01:37:18.026Z,101794.28
2019-02-24T01:39:48.611Z,101799.69
2019-02-24T01:42:19.037Z,101788.73
2019-02-24T01:44:49.656Z,101777.02
2019-02-24T01:47:20.246Z,101766.67
2019-02-24T01:49:50.831Z,101767.12
2019-02-24T01:52:21.517Z,101764.36
2019-02-24T01:54:52.146Z,101741.47
2019-02-24T01:57:22.587Z,101726.28
2019-02-24T01:59:53.306Z,101739.50
2019-02-24T02:02:23.907Z,101739.05
2019-02-24T02:04:54.464Z,101725.69
2019-02-24T02:07:25.002Z,101741.45
2019-02-24T02:09:55.536Z,101747.90
2019-02-24T02:12:25.996Z,101744.44
2019-02-24T02:14:56.615Z,101748.23
2019-02-24T02:17:27.100Z,101749.50
2019-02-24T02:19:57.547Z,101747.07
2019-02-24T02:22:28.379Z,101765.89
2019-02-24T02:24:58.861Z,101776.24
2019-02-24T02:27:29.377Z,101779.81
2019-02-24T02:29:59.871Z,101776.66
2019-02-24T02:32:30.449Z,101777.34
2019-02-24T02:35:00.811Z,101770.84
2019-02-24T02:37:31.381Z,101773.58
2019-02-24T02:40:01.783Z,101763.72
2019-02-24T02:42:32.321Z,101764.57
2019-02-24T02:45:02.782Z,101749.12
2019-02-24T02:47:33.111Z,101749.30
2019-02-24T02:50:03.633Z,101733.72
2019-02-24T02:52:33.975Z,101707.70
2019-02-24T02:55:04.982Z,101710.42
2019-02-24T02:57:35.485Z,101707.84
2019-02-24T03:00:13.211Z,101713.26
2019-02-24T03:02:43.837Z,101716.72
2019-02-24T03:05:14.475Z,101708.06
2019-02-24T03:07:48.461Z,101702.22
2019-02-24T03:10:18.852Z,101699.09
2019-02-24T03:12:50.912Z,101700.83
2019-02-24T03:15:21.435Z,101697.61
2019-02-24T03:17:52.182Z,101699.30
2019-02-24T03:20:22.675Z,101694.53
2019-02-24T03:22:53.341Z,101698.77
2019-02-24T03:25:23.840Z,101690.69
2019-02-24T03:27:54.309Z,101678.64
2019-02-24T03:30:24.744Z,101694.03
2019-02-24T03:32:55.242Z,101691.45
2019-02-24T03:35:25.618Z,101693.48
2019-02-24T03:37:56.033Z,101687.84
2019-02-24T03:40:26.617Z,101695.76
2019-02-24T03:42:57.147Z,101701.63
2019-02-24T03:45:27.626Z,101710.95
2019-02-24T03:47:58.175Z,101706.16
2019-02-24T03:50:28.632Z,101708.83
2019-02-24T03:52:59.611Z,101714.11
2019-02-24T03:55:30.634Z,101718.47
2019-02-24T03:58:01.141Z,101719.57
2019-02-24T04:00:32.062Z,101720.16
2019-02-24T04:03:02.691Z,101725.36
2019-02-24T04:05:33.184Z,101716.53
2019-02-24T04:08:04.001Z,101712.72
2019-02-24T04:10:34.487Z,101717.20
2019-02-24T04:13:05.055Z,101707.44
2019-02-24T04:15:35.604Z,101710.19
2019-02-24T04:18:06.128Z,101704.27
2019-02-24T04:20:36.678Z,101703.41
2019-02-24T04:23:07.167Z,101702.48
2019-02-24T04:25:37.556Z,101699.06
2019-02-24T04:28:08.477Z,101717.13
2019-02-24T04:30:38.992Z,101718.30
2019-02-24T04:33:09.478Z,101716.91
2019-02-24T04:35:39.977Z,101719.36
2019-02-24T04:38:10.517Z,101715.34
2019-02-24T04:40:40.931Z,101718.77
2019-02-24T04:43:11.411Z,101724.34
2019-02-24T04:45:41.921Z,101723.45
2019-02-24T04:48:12.457Z,101726.64
2019-02-24T04:50:43.011Z,101726.47
2019-02-24T04:53:13.426Z,101726.47
2019-02-24T04:55:43.915Z,101718.01
2019-02-24T04:58:14.452Z,101717.84
2019-02-24T05:00:44.946Z,101714.80
2019-02-24T05:03:15.459Z,101717.23
2019-02-24T05:05:45.942Z,101721.02
2019-02-24T05:08:16.407Z,101713.27
2019-02-24T05:10:47.157Z,101710.14
2019-02-24T05:13:17.581Z,101709.70
2019-02-24T05:15:47.930Z,101706.95
2019-02-24T05:18:18.661Z,101703.55
2019-02-24T05:20:49.165Z,101708.27
2019-02-24T05:23:19.618Z,101706.36
2019-02-24T05:25:50.076Z,101704.06
2019-02-24T05:28:20.713Z,101715.17
2019-02-24T05:30:51.082Z,101721.05
2019-02-24T05:33:21.677Z,101716.17
2019-02-24T05:35:52.246Z,101714.46
2019-02-24T05:38:22.796Z,101715.89
2019-02-24T05:40:53.258Z,101718.98
2019-02-24T05:43:23.914Z,101713.22
2019-02-24T05:45:54.531Z,101709.54
2019-02-24T05:48:25.011Z,101715.34
2019-02-24T05:50:55.471Z,101712.58
2019-02-24T05:53:25.841Z,101708.53
2019-02-24T05:55:56.376Z,101693.31
2019-02-24T05:58:26.925Z,101696.70
2019-02-24T06:00:57.589Z,101699.98
2019-02-24T06:03:28.018Z,101678.79
2019-02-24T06:05:58.481Z,101683.02
2019-02-24T06:08:29.143Z,101669.24
2019-02-24T06:10:59.525Z,101673.44
2019-02-24T06:13:30.229Z,101670.66
2019-02-24T06:16:00.794Z,101667.50
2019-02-24T06:18:31.281Z,101668.62
2019-02-24T06:21:01.886Z,101671.60
2019-02-24T06:23:32.499Z,101664.67
2019-02-24T06:26:03.369Z,101663.89
2019-02-24T06:28:33.941Z,101665.73
2019-02-24T06:31:05.506Z,101673.69
2019-02-24T06:33:35.938Z,101680.92
2019-02-24T06:36:06.820Z,101694.03
2019-02-24T06:38:37.582Z,101696.50
2019-02-24T06:41:08.518Z,101701.80
2019-02-24T06:43:39.122Z,101711.63
2019-02-24T06:46:09.818Z,101712.94
2019-02-24T06:48:40.552Z,101697.69
2019-02-24T06:51:12.307Z,101691.78
2019-02-24T06:53:42.977Z,101677.08
2019-02-24T06:56:13.879Z,101681.63
2019-02-24T06:58:45.329Z,101677.17
2019-02-24T07:01:16.327Z,101658.71
2019-02-24T07:03:46.943Z,101665.88
2019-02-24T07:06:17.457Z,101672.95
2019-02-24T07:08:48.033Z,101677.51
2019-02-24T07:11:18.539Z,101670.11
2019-02-24T07:13:49.017Z,101667.79
2019-02-24T07:16:19.519Z,101660.94
2019-02-24T07:18:50.117Z,101657.97
2019-02-24T07:21:20.550Z,101658.35
2019-02-24T07:23:52.499Z,101651.91
2019-02-24T07:26:23.199Z,101642.59
2019-02-24T07:28:53.785Z,101631.23
2019-02-24T07:31:24.481Z,101635.70
2019-02-24T07:33:55.299Z,101617.38
2019-02-24T07:36:26.039Z,101603.80
2019-02-24T07:38:56.756Z,101596.74
2019-02-24T07:41:27.596Z,101591.45
2019-02-24T07:43:58.355Z,101584.72
2019-02-24T07:46:29.157Z,101582.59
2019-02-24T07:49:00.147Z,101591.17
2019-02-24T07:51:30.794Z,101580.98
2019-02-24T07:54:01.277Z,101577.74
2019-02-24T07:56:32.069Z,101579.17
2019-02-24T07:59:02.675Z,101590.45
2019-02-24T08:01:33.364Z,101595.14
2019-02-24T08:04:04.112Z,101598.58
2019-02-24T08:06:37.077Z,101604.73
2019-02-24T08:09:09.479Z,101602.63
2019-02-24T08:11:39.988Z,101607.61
2019-02-24T08:14:11.025Z,101601.48
2019-02-24T08:16:46.200Z,101593.37
2019-02-24T08:19:18.487Z,101582.92
2019-02-24T08:21:49.244Z,101577.90
2019-02-24T08:24:19.771Z,101595.42
2019-02-24T08:26:51.414Z,101604.88
2019-02-24T08:29:23.356Z,101610.63
2019-02-24T08:31:54.199Z,101611.91
2019-02-24T08:34:25.675Z,101607.91
2019-02-24T08:36:57.176Z,101595.61
2019-02-24T08:39:28.783Z,101600.61
2019-02-24T08:42:00.003Z,101590.35
2019-02-24T08:44:30.598Z,101593.30
2019-02-24T08:47:01.485Z,101592.80
2019-02-24T08:49:31.979Z,101609.94
2019-02-24T08:52:02.851Z,101596.35
2019-02-24T08:54:37.688Z,101602.56
2019-02-24T08:57:08.236Z,101601.33
2019-02-24T08:59:38.839Z,101606.80
2019-02-24T09:02:09.192Z,101604.64
2019-02-24T09:04:40.078Z,101598.77
2019-02-24T09:07:10.544Z,101593.86
2019-02-24T09:09:41.137Z,101586.77
2019-02-24T09:12:11.667Z,101594.99
2019-02-24T09:14:42.302Z,101602.67
2019-02-24T09:17:12.876Z,101593.73
2019-02-24T09:19:43.432Z,101595.56
2019-02-24T09:22:14.045Z,101604.88
2019-02-24T09:24:44.545Z,101605.41
2019-02-24T09:27:15.072Z,101612.37
2019-02-24T09:29:45.598Z,101610.69
2019-02-24T09:32:16.215Z,101599.31
2019-02-24T09:34:46.811Z,101598.24
2019-02-24T09:37:17.406Z,101596.78
2019-02-24T09:39:47.966Z,101597.31
2019-02-24T09:42:18.541Z,101600.08
2019-02-24T09:44:49.102Z,101591.88
2019-02-24T09:47:19.674Z,101606.86
2019-02-24T09:49:50.169Z,101602.32
2019-02-24T09:52:20.681Z,101602.32
2019-02-24T09:54:51.552Z,101609.44
2019-02-24T09:57:22.072Z,101604.89
2019-02-24T09:59:52.599Z,101609.11
2019-02-24T10:02:23.148Z,101612.20
2019-02-24T10:04:53.657Z,101611.68
2019-02-24T10:07:24.278Z,101611.11
2019-02-24T10:09:54.745Z,101610.93
2019-02-24T10:12:25.351Z,101603.58
2019-02-24T10:14:56.486Z,101612.31
2019-02-24T10:17:27.046Z,101611.20
2019-02-24T10:19:57.439Z,101614.78
2019-02-24T10:22:28.086Z,101612.48
2019-02-24T10:24:58.527Z,101611.30
2019-02-24T10:27:29.054Z,101612.19
2019-02-24T10:29:59.947Z,101608.09
2019-02-24T10:32:30.378Z,101617.16
2019-02-24T10:35:00.866Z,101610.90
2019-02-24T10:37:31.436Z,101601.66
2019-02-24T10:40:01.966Z,101601.69
2019-02-24T10:42:32.607Z,101593.65
2019-02-24T10:45:03.198Z,101601.04
2019-02-24T10:47:33.661Z,101599.36
2019-02-24T10:50:04.611Z,101603.58
2019-02-24T10:52:35.075Z,101608.97
2019-02-24T10:55:06.050Z,101609.45
2019-02-24T10:57:36.955Z,101605.36
2019-02-24T11:00:10.240Z,101602.08
2019-02-24T11:02:40.850Z,101594.81
2019-02-24T11:05:11.678Z,101600.69
2019-02-24T11:07:42.447Z,101595.64
2019-02-24T11:10:13.525Z,101587.74
2019-02-24T11:12:44.131Z,101591.39
2019-02-24T11:15:14.796Z,101583.78
2019-02-24T11:17:45.348Z,101579.13
2019-02-24T11:20:16.192Z,101576.02
2019-02-24T11:22:46.715Z,101568.13
2019-02-24T11:25:17.366Z,101561.12
2019-02-24T11:27:47.933Z,101557.97
2019-02-24T11:30:18.544Z,101553.92
2019-02-24T11:32:49.144Z,101546.65
2019-02-24T11:35:19.876Z,101542.97
2019-02-24T11:37:51.182Z,101544.22
2019-02-24T11:40:21.856Z,101535.25
2019-02-24T11:42:52.518Z,101533.94
2019-02-24T11:45:23.051Z,101534.94
2019-02-24T11:47:53.681Z,101531.64
2019-02-24T11:50:24.201Z,101530.12
2019-02-24T11:52:55.051Z,101532.36
2019-02-24T11:55:25.523Z,101527.66
2019-02-24T11:57:56.049Z,101517.66
2019-02-24T12:00:26.730Z,101520.00
2019-02-24T12:02:57.267Z,101520.55
2019-02-24T12:05:27.870Z,101528.98
2019-02-24T12:07:58.444Z,101534.17
2019-02-24T12:10:28.851Z,101532.36
2019-02-24T12:12:59.585Z,101540.66
2019-02-24T12:15:30.121Z,101535.56
2019-02-24T12:18:00.713Z,101535.43
2019-02-24T12:20:31.322Z,101542.39
2019-02-24T12:23:01.897Z,101542.33
2019-02-24T12:25:32.437Z,101530.41
2019-02-24T12:28:03.047Z,101527.00
2019-02-24T12:30:33.658Z,101526.64
2019-02-24T12:33:04.205Z,101537.38
2019-02-24T12:35:35.544Z,101534.52
2019-02-24T12:38:06.337Z,101525.50
2019-02-24T12:40:37.117Z,101535.25
2019-02-24T12:43:07.570Z,101528.14
2019-02-24T12:45:38.148Z,101533.25
2019-02-24T12:48:10.424Z,101531.20
2019-02-24T12:50:40.994Z,101532.02
2019-02-24T12:53:11.533Z,101525.91
2019-02-24T12:55:42.126Z,101525.34
2019-02-24T12:58:12.742Z,101525.78
2019-02-24T13:00:43.280Z,101530.81
2019-02-24T13:03:13.841Z,101524.89
2019-02-24T13:05:44.401Z,101517.66
2019-02-24T13:08:15.111Z,101513.61
2019-02-24T13:10:45.848Z,101517.71
2019-02-24T13:13:16.427Z,101514.80
2019-02-24T13:15:46.949Z,101506.22
2019-02-24T13:18:17.986Z,101501.19
2019-02-24T13:20:48.571Z,101495.73
2019-02-24T13:23:19.202Z,101493.38
2019-02-24T13:25:49.709Z,101488.77
2019-02-24T13:28:20.177Z,101482.53
2019-02-24T13:30:50.737Z,101484.95
2019-02-24T13:33:21.280Z,101486.27
2019-02-24T13:35:51.828Z,101486.33
2019-02-24T13:38:22.512Z,101491.37
2019-02-24T13:40:53.051Z,101484.65
2019-02-24T13:43:23.582Z,101490.17
2019-02-24T13:45:54.197Z,101491.63
2019-02-24T13:48:24.776Z,101496.71
2019-02-24T13:50:55.231Z,101491.78
2019-02-24T13:53:25.765Z,101492.75
2019-02-24T13:55:58.334Z,101488.17
2019-02-24T13:58:31.974Z,101486.52
2019-02-24T14:01:03.387Z,101488.61
2019-02-24T14:03:33.961Z,101492.70
2019-02-24T14:06:04.487Z,101487.97
2019-02-24T14:08:35.032Z,101482.70
2019-02-24T14:11:06.662Z,101489.38
2019-02-24T14:13:37.362Z,101486.44
2019-02-24T14:16:07.919Z,101480.04
2019-02-24T14:18:41.763Z,101486.97
2019-02-24T14:21:12.357Z,101478.72
2019-02-24T14:23:43.064Z,101488.27
2019-02-24T14:26:13.652Z,101491.09
2019-02-24T14:28:44.194Z,101495.70
2019-02-24T14:31:14.753Z,101495.03
2019-02-24T14:33:45.372Z,101496.92
2019-02-24T14:36:16.001Z,101497.15
2019-02-24T14:38:46.710Z,101499.43
2019-02-24T14:41:17.325Z,101493.20
2019-02-24T14:43:47.892Z,101486.82
2019-02-24T14:46:18.531Z,101489.88
2019-02-24T14:48:49.185Z,101488.80
2019-02-24T14:51:19.891Z,101478.64
2019-02-24T14:53:50.808Z,101480.53
2019-02-24T14:56:23.267Z,101477.06
2019-02-24T14:58:55.077Z,101473.26
2019-02-24T15:01:26.072Z,101465.95
2019-02-24T15:03:56.700Z,101467.10
2019-02-24T15:06:27.258Z,101466.44
2019-02-24T15:09:07.337Z,101473.70
2019-02-24T15:11:40.591Z,101474.48
2019-02-24T15:14:11.251Z,101473.01
2019-02-24T15:16:42.042Z,101467.25
2019-02-24T15:19:13.715Z,101463.86
2019-02-24T15:21:47.951Z,101461.06
2019-02-24T15:24:24.723Z,101464.34
2019-02-24T15:26:55.701Z,101465.45
2019-02-24T15:29:27.760Z,101467.63
2019-02-24T15:31:58.478Z,101472.00
2019-02-24T15:34:32.712Z,101471.98
2019-02-24T15:37:03.422Z,101467.10
2019-02-24T15:39:33.988Z,101469.48
2019-02-24T15:42:06.011Z,101473.35
2019-02-24T15:44:37.753Z,101461.58
2019-02-24T15:47:08.384Z,101468.53
2019-02-24T15:49:40.361Z,101473.77
2019-02-24T15:52:10.947Z,101473.48
2019-02-24T15:54:41.702Z,101467.84
2019-02-24T15:57:13.641Z,101471.41
2019-02-24T15:59:44.257Z,101459.41
2019-02-24T16:02:16.086Z,101455.36
2019-02-24T16:04:46.641Z,101456.95
2019-02-24T16:07:17.187Z,101451.89
2019-02-24T16:09:47.830Z,101450.67
2019-02-24T16:12:18.458Z,101444.94
2019-02-24T16:14:49.015Z,101446.50
2019-02-24T16:17:19.567Z,101448.00
2019-02-24T16:19:50.086Z,101454.02
2019-02-24T16:22:20.604Z,101459.90
2019-02-24T16:24:51.095Z,101454.28
2019-02-24T16:27:26.592Z,101453.25
2019-02-24T16:29:57.301Z,101453.77
2019-02-24T16:32:28.366Z,101454.07
2019-02-24T16:35:02.481Z,101459.03
2019-02-24T16:37:33.041Z,101460.50
2019-02-24T16:40:13.078Z,101463.55
2019-02-24T16:42:43.598Z,101466.38
2019-02-24T16:45:18.286Z,101469.31
2019-02-24T16:47:48.932Z,101461.39
2019-02-24T16:50:19.711Z,101455.72
2019-02-24T16:52:50.382Z,101464.52
2019-02-24T16:55:21.007Z,101471.73
2019-02-24T16:57:51.598Z,101477.91
2019-02-24T17:00:22.204Z,101470.60
2019-02-24T17:02:52.943Z,101476.88
2019-02-24T17:05:24.219Z,101469.00
2019-02-24T17:07:54.912Z,101465.80
2019-02-24T17:10:25.596Z,101472.89
2019-02-24T17:13:01.699Z,101473.10
2019-02-24T17:15:34.460Z,101472.62
2019-02-24T17:18:09.290Z,101478.84
2019-02-24T17:20:41.056Z,101473.08
2019-02-24T17:23:13.771Z,101474.41
2019-02-24T17:25:46.031Z,101476.42
2019-02-24T17:28:21.482Z,101475.62
2019-02-24T17:30:57.417Z,101476.80
2019-02-24T17:33:30.226Z,101479.00
2019-02-24T17:36:02.062Z,101480.41
2019-02-24T17:38:38.050Z,101481.33
2019-02-24T17:41:09.808Z,101478.56
2019-02-24T17:43:44.650Z,101476.95
2019-02-24T17:46:18.771Z,101477.51
2019-02-24T17:48:54.006Z,101477.34
2019-02-24T17:51:28.384Z,101472.55
2019-02-24T17:54:04.284Z,101466.80
2019-02-24T17:56:34.879Z,101466.40
2019-02-24T17:59:10.679Z,101458.98
2019-02-24T18:01:41.372Z,101473.95
2019-02-24T18:04:18.906Z,101473.72
2019-02-24T18:06:50.639Z,101480.11
2019-02-24T18:09:26.627Z,101479.91
2019-02-24T18:12:01.336Z,101478.57
2019-02-24T18:14:36.188Z,101482.25
2019-02-24T18:17:18.101Z,101484.46
2019-02-24T18:19:53.222Z,101480.22
2019-02-24T18:22:26.315Z,101483.42
2019-02-24T18:25:03.503Z,101482.98
2019-02-24T18:27:35.578Z,101478.99
2019-02-24T18:30:09.927Z,101475.81
2019-02-24T18:32:41.022Z,101485.17
2019-02-24T18:35:11.562Z,101483.89
2019-02-24T18:37:43.966Z,101485.41
2019-02-24T18:40:18.744Z,101484.27
2019-02-24T18:42:59.314Z,101482.20
2019-02-24T18:45:21.798Z,101473.84
2019-02-24T18:47:55.372Z,101469.64
2019-02-24T18:50:26.601Z,101464.80
2019-02-24T18:53:02.693Z,101471.25
2019-02-24T18:55:33.302Z,101463.58
2019-02-24T18:58:10.777Z,101463.26
2019-02-24T19:00:43.912Z,101468.63
2019-02-24T19:03:18.917Z,101471.36
2019-02-24T19:05:58.647Z,101459.84
2019-02-24T19:08:31.363Z,101457.45
2019-02-24T19:11:12.446Z,101466.95
2019-02-24T19:13:49.560Z,101466.44
2019-02-24T19:16:34.082Z,101472.33
2019-02-24T19:19:07.063Z,101469.95
2019-02-24T19:21:47.482Z,101467.60
2019-02-24T19:24:24.346Z,101467.09
2019-02-24T19:26:57.197Z,101456.10
2019-02-24T19:29:40.183Z,101455.02
2019-02-24T19:32:14.481Z,101458.72
2019-02-24T19:34:45.123Z,101450.13
2019-02-24T19:37:18.267Z,101452.75
2019-02-24T19:39:55.250Z,101465.16
2019-02-24T19:42:27.191Z,101473.17
2019-02-24T19:45:13.917Z,101473.52
2019-02-24T19:47:48.131Z,101480.61
2019-02-24T19:50:21.342Z,101475.86
2019-02-24T19:52:56.905Z,101477.87
2019-02-24T19:55:35.608Z,101474.37
2019-02-24T19:58:07.144Z,101468.75
2019-02-24T20:00:42.453Z,101460.33
2019-02-24T20:03:18.653Z,101470.82
2019-02-24T20:05:49.415Z,101460.94
2019-02-24T20:08:26.984Z,101469.89
2019-02-24T20:11:03.623Z,101469.73
2019-02-24T20:13:35.124Z,101475.25
2019-02-24T20:16:09.001Z,101471.06
2019-02-24T20:18:43.214Z,101473.27
2019-02-24T20:21:17.922Z,101476.77
2019-02-24T20:23:53.110Z,101483.70
2019-02-24T20:26:27.345Z,101483.88
2019-02-24T20:28:59.429Z,101479.32
2019-02-24T20:31:32.364Z,101474.73
2019-02-24T20:34:04.800Z,101479.67
2019-02-24T20:36:40.299Z,101485.14
2019-02-24T20:39:12.122Z,101491.17
2019-02-24T20:41:45.204Z,101485.34
2019-02-24T20:44:16.836Z,101487.14
2019-02-24T20:46:47.668Z,101490.98
2019-02-24T20:49:21.761Z,101484.05
2019-02-24T20:51:54.673Z,101485.69
2019-02-24T20:54:32.857Z,101487.13
2019-02-24T20:57:06.111Z,101492.77
2019-02-24T20:59:42.902Z,101498.27
2019-02-24T21:02:14.965Z,101504.31
2019-02-24T21:04:47.902Z,101500.48
2019-02-24T21:07:22.379Z,101498.85
2019-02-24T21:09:55.951Z,101501.23
2019-02-24T21:12:31.946Z,101498.86
2019-02-24T21:15:04.294Z,101502.16
2019-02-24T21:17:36.043Z,101492.10
2019-02-24T21:20:09.686Z,101500.31
2019-02-24T21:22:43.494Z,101494.66
2019-02-24T21:25:15.369Z,101489.38
2019-02-24T21:27:46.086Z,101489.15
2019-02-24T21:30:28.457Z,101494.08
2019-02-24T21:32:59.079Z,101490.61
2019-02-24T21:35:30.112Z,101488.05
2019-02-24T21:38:00.890Z,101477.45
2019-02-24T21:40:32.143Z,101481.80
2019-02-24T21:43:06.463Z,101475.05
2019-02-24T21:45:38.681Z,101469.00
2019-02-24T21:48:09.401Z,101470.09
2019-02-24T21:50:41.951Z,101470.06
2019-02-24T21:53:12.974Z,101476.45
2019-02-24T21:55:43.796Z,101479.36
2019-02-24T21:58:14.414Z,101480.52
2019-02-24T22:00:45.390Z,101477.43
2019-02-24T22:03:16.287Z,101474.89
2019-02-24T22:05:47.551Z,101486.20
2019-02-24T22:08:18.803Z,101488.60
2019-02-24T22:10:49.951Z,101496.09
2019-02-24T22:13:20.416Z,101498.46
2019-02-24T22:15:51.053Z,101496.09
2019-02-24T22:18:21.544Z,101494.05
2019-02-24T22:20:52.176Z,101492.38
2019-02-24T22:23:22.786Z,101483.25
2019-02-24T22:25:53.321Z,101488.00
2019-02-24T22:28:23.937Z,101485.43
2019-02-24T22:30:54.556Z,101481.03
2019-02-24T22:33:25.119Z,101491.02
2019-02-24T22:35:55.628Z,101495.22
2019-02-24T22:38:26.672Z,101491.92
2019-02-24T22:40:57.106Z,101482.97
2019-02-24T22:43:27.719Z,101491.73
2019-02-24T22:45:58.351Z,101496.64
2019-02-24T22:48:29.072Z,101480.41
2019-02-24T22:50:59.542Z,101483.69
2019-02-24T22:53:30.152Z,101476.71
2019-02-24T22:56:00.711Z,101470.14
2019-02-24T22:58:31.158Z,101472.14
2019-02-24T23:01:13.586Z,101471.57
2019-02-24T23:03:49.096Z,101461.77
2019-02-24T23:06:19.721Z,101469.48
2019-02-24T23:08:50.735Z,101472.96
2019-02-24T23:11:21.396Z,101466.77
2019-02-24T23:13:51.981Z,101467.16
2019-02-24T23:16:22.710Z,101468.95
2019-02-24T23:18:53.265Z,101462.19
2019-02-24T23:21:23.895Z,101466.73
2019-02-24T23:23:54.441Z,101454.10
2019-02-24T23:26:24.821Z,101453.33
2019-02-24T23:28:55.513Z,101454.96
2019-02-24T23:31:25.916Z,101452.38
2019-02-24T23:33:56.574Z,101455.25
2019-02-24T23:36:27.186Z,101446.86
2019-02-24T23:38:58.232Z,101455.38
2019-02-24T23:41:28.726Z,101449.89
2019-02-24T23:43:59.191Z,101450.83
2019-02-24T23:46:30.028Z,101445.75
2019-02-24T23:49:00.723Z,101445.05
2019-02-24T23:51:31.230Z,101433.20
2019-02-24T23:54:01.830Z,101429.03
2019-02-24T23:56:32.424Z,101418.45
2019-02-24T23:59:02.962Z,101420.78
